Time;durP1;ratioP1;P1;durP2;ratioP2;P2;SDS_P1;SDS_P2;PMS_P1;PMS_P2;Temp;Humidity;BMP_temperature;BMP_pressure;BME280_temperature;BME280_humidity;BME280_pressure;Samples;Min_cycle;Max_cycle;Signal;HPM_P1;HPM_P2
2023/03/22 00:01:18;;;;;;;17.27;10.18;;;3.30;99.90;;;;;;4841162;29;20058;-65
2023/03/22 00:03:46;;;;;;;19.85;9.55;;;3.30;99.90;;;;;;4842012;29;20144;-64
2023/03/22 00:06:15;;;;;;;14.82;8.52;;;3.30;99.90;;;;;;4844629;29;20086;-66
2023/03/22 00:08:43;;;;;;;14.93;9.38;;;3.30;99.90;;;;;;4846047;29;20044;-63
2023/03/22 00:11:11;;;;;;;15.80;9.50;;;3.30;99.90;;;;;;4848441;29;20068;-70
2023/03/22 00:13:38;;;;;;;14.50;9.60;;;3.30;99.90;;;;;;4848857;29;20041;-65
2023/03/22 00:16:06;;;;;;;14.70;9.90;;;3.30;99.90;;;;;;4850554;29;20049;-67
2023/03/22 00:18:33;;;;;;;16.70;9.32;;;3.30;99.90;;;;;;4848879;29;20045;-64
2023/03/22 00:21:00;;;;;;;14.50;8.65;;;3.40;99.90;;;;;;4845377;29;20050;-66
2023/03/22 00:23:28;;;;;;;16.60;9.95;;;3.40;99.90;;;;;;4846950;29;20465;-65
2023/03/22 00:25:55;;;;;;;11.38;7.28;;;3.40;99.90;;;;;;4849353;29;20055;-68
2023/03/22 00:28:23;;;;;;;10.35;7.38;;;3.40;99.90;;;;;;4845668;29;20049;-64
2023/03/22 00:30:56;;;;;;;13.32;7.82;;;3.40;99.90;;;;;;4845681;29;20052;-65
2023/03/22 00:33:26;;;;;;;10.35;7.20;;;3.40;99.90;;;;;;4861234;29;20049;-67
2023/03/22 00:35:57;;;;;;;12.65;7.28;;;3.40;99.90;;;;;;4846991;29;20052;-67
2023/03/22 00:38:32;;;;;;;11.55;6.90;;;3.40;99.90;;;;;;4840180;29;20459;-64
2023/03/22 00:41:10;;;;;;;8.77;6.13;;;3.40;99.90;;;;;;4849208;29;20196;-65
2023/03/22 00:43:37;;;;;;;8.90;6.13;;;3.50;99.90;;;;;;4845229;29;20125;-68
2023/03/22 00:46:05;;;;;;;8.57;6.45;;;3.50;99.90;;;;;;4846727;29;20053;-64
2023/03/22 00:48:32;;;;;;;8.32;5.60;;;3.50;99.90;;;;;;4851426;29;20053;-66
2023/03/22 00:50:59;;;;;;;8.77;5.63;;;3.50;99.90;;;;;;4849356;29;20055;-66
2023/03/22 00:53:31;;;;;;;9.27;6.55;;;3.50;99.90;;;;;;4842312;29;20389;-66
2023/03/22 00:55:59;;;;;;;8.23;5.30;;;3.50;99.90;;;;;;4853215;29;20061;-68
2023/03/22 00:58:29;;;;;;;;;;;3.50;99.90;;;;;;4862281;29;20363;-65
2023/03/22 01:00:56;;;;;;;6.63;4.95;;;3.50;99.90;;;;;;4848217;29;20365;-68
2023/03/22 01:03:23;;;;;;;6.88;4.75;;;3.60;99.90;;;;;;4846087;29;20064;-64
2023/03/22 01:05:55;;;;;;;7.10;4.80;;;3.60;99.90;;;;;;4852346;29;20056;-68
2023/03/22 01:08:23;;;;;;;8.23;5.00;;;3.60;99.90;;;;;;4848116;29;20113;-66
2023/03/22 01:10:50;;;;;;;6.13;4.70;;;3.60;99.90;;;;;;4843535;29;20053;-69
2023/03/22 01:13:17;;;;;;;6.07;4.18;;;3.60;99.90;;;;;;4849329;29;20391;-65
2023/03/22 01:15:46;;;;;;;4.70;3.85;;;3.70;99.90;;;;;;4844298;29;20242;-68
2023/03/22 01:18:14;;;;;;;5.07;3.78;;;3.70;99.90;;;;;;4862947;29;20053;-64
2023/03/22 01:20:40;;;;;;;5.90;3.75;;;3.70;99.90;;;;;;4844260;29;20144;-66
2023/03/22 01:23:08;;;;;;;4.35;3.17;;;3.70;99.90;;;;;;4848799;29;20056;-68
2023/03/22 01:25:35;;;;;;;6.63;3.35;;;3.80;99.90;;;;;;4848608;29;20070;-66
2023/03/22 01:28:02;;;;;;;5.13;3.90;;;3.70;99.90;;;;;;4844848;29;21837;-66
2023/03/22 01:30:29;;;;;;;4.25;3.40;;;3.80;99.90;;;;;;4849967;29;20038;-66
2023/03/22 01:32:56;;;;;;;4.22;2.97;;;3.70;99.90;;;;;;4844411;29;20134;-69
2023/03/22 01:35:23;;;;;;;4.95;3.05;;;3.80;99.90;;;;;;4845006;29;20132;-64
2023/03/22 01:37:50;;;;;;;3.67;2.72;;;3.80;99.90;;;;;;4860725;29;20069;-68
2023/03/22 01:40:19;;;;;;;4.30;2.83;;;3.80;99.90;;;;;;4861793;29;20539;-65
2023/03/22 01:42:46;;;;;;;5.68;3.50;;;3.80;99.90;;;;;;4848997;29;20056;-64
2023/03/22 01:45:29;;;;;;;4.20;3.10;;;3.90;99.90;;;;;;4857782;29;20045;-67
2023/03/22 01:48:24;;;;;;;5.05;3.08;;;3.90;99.90;;;;;;4845417;29;20586;-65
2023/03/22 01:51:03;;;;;;;3.42;2.63;;;3.90;99.90;;;;;;4835609;29;20148;-65
2023/03/22 01:54:03;;;;;;;6.15;4.57;;;3.90;99.90;;;;;;4842904;29;20049;-63
2023/03/22 01:56:34;;;;;;;5.05;3.38;;;3.90;99.90;;;;;;4833094;29;20045;-64
2023/03/22 01:59:02;;;;;;;5.43;4.40;;;3.90;99.90;;;;;;4848436;29;20508;-65
2023/03/22 02:01:45;;;;;;;6.60;4.07;;;4.00;99.90;;;;;;4849539;29;20053;-66
2023/03/22 02:04:19;;;;;;;5.70;3.63;;;4.00;99.90;;;;;;4838909;29;20052;-64
2023/03/22 02:06:47;;;;;;;6.00;3.45;;;4.00;99.90;;;;;;4848460;29;20054;-64
2023/03/22 02:09:20;;;;;;;5.75;3.70;;;4.00;99.90;;;;;;4847612;29;20240;-64
2023/03/22 02:11:58;;;;;;;7.93;5.63;;;4.00;99.90;;;;;;4845711;29;20058;-64
2023/03/22 02:14:46;;;;;;;6.35;4.43;;;4.10;99.90;;;;;;4856894;29;20066;-65
2023/03/22 02:18:00;;;;;;;4.93;3.30;;;4.10;99.90;;;;;;4848846;29;20085;-66
2023/03/22 02:20:52;;;;;;;5.78;4.10;;;4.10;99.90;;;;;;4863298;29;20057;-65
2023/03/22 02:23:28;;;;;;;7.80;4.82;;;4.10;99.90;;;;;;4845856;29;20685;-65
2023/03/22 02:26:26;;;;;;;6.25;5.07;;;4.10;99.90;;;;;;4849074;29;20082;-65
2023/03/22 02:29:07;;;;;;;5.85;4.35;;;4.10;99.90;;;;;;4847937;29;20140;-69
2023/03/22 02:31:45;;;;;;;7.25;5.53;;;4.20;99.90;;;;;;4848248;29;20053;-64
2023/03/22 02:35:01;;;;;;;7.18;5.28;;;4.10;99.90;;;;;;4849314;29;20843;-67
2023/03/22 02:37:46;;;;;;;7.28;5.22;;;4.20;99.90;;;;;;4795941;29;20065;-66
2023/03/22 02:40:50;;;;;;;8.18;5.32;;;4.20;99.90;;;;;;4811316;29;20058;-69
2023/03/22 02:43:45;;;;;;;8.85;6.05;;;4.20;99.90;;;;;;4826251;29;20509;-65
2023/03/22 02:46:29;;;;;;;8.77;5.90;;;4.20;99.90;;;;;;4843878;29;20453;-68
2023/03/22 02:49:25;;;;;;;7.50;6.00;;;4.20;99.90;;;;;;4843327;29;20148;-68
2023/03/22 02:52:09;;;;;;;11.45;6.68;;;4.30;99.90;;;;;;4843864;29;20065;-65
2023/03/22 02:54:44;;;;;;;9.02;6.63;;;4.30;99.90;;;;;;4840629;29;20057;-66
2023/03/22 02:57:19;;;;;;;8.57;6.50;;;4.30;99.90;;;;;;4846042;29;20061;-65
2023/03/22 02:59:47;;;;;;;8.25;6.13;;;4.30;99.90;;;;;;4841509;29;20419;-65
2023/03/22 03:02:17;;;;;;;9.10;6.15;;;4.30;99.90;;;;;;4843737;29;20050;-68
2023/03/22 03:04:48;;;;;;;11.18;6.65;;;4.30;99.90;;;;;;4843158;29;20114;-66
2023/03/22 03:07:20;;;;;;;11.45;7.05;;;4.40;99.90;;;;;;4862267;29;20701;-67
2023/03/22 03:09:49;;;;;;;11.68;7.25;;;4.40;99.90;;;;;;4844141;29;20467;-69
2023/03/22 03:12:23;;;;;;;10.18;6.90;;;4.40;99.90;;;;;;4840290;29;20815;-66
2023/03/22 03:14:52;;;;;;;13.18;7.22;;;4.40;99.90;;;;;;4844650;29;20049;-66
2023/03/22 03:17:23;;;;;;;11.63;7.57;;;4.40;99.90;;;;;;4842709;29;20050;-64
2023/03/22 03:20:06;;;;;;;11.60;8.25;;;4.40;99.90;;;;;;4855401;29;20056;-66
2023/03/22 03:22:46;;;;;;;9.20;6.50;;;4.40;99.90;;;;;;4843010;29;20050;-65
2023/03/22 03:25:26;;;;;;;9.93;7.35;;;4.40;99.90;;;;;;4844685;29;20110;-63
2023/03/22 03:28:11;;;;;;;9.10;6.80;;;4.40;99.90;;;;;;4848098;29;20412;-64
2023/03/22 03:30:55;;;;;;;8.90;6.35;;;4.40;99.90;;;;;;4844585;29;20081;-65
2023/03/22 03:33:24;;;;;;;10.13;6.80;;;4.50;99.90;;;;;;4846172;29;20042;-63
2023/03/22 03:35:58;;;;;;;9.50;6.75;;;4.50;99.90;;;;;;4848862;29;20041;-66
2023/03/22 03:38:30;;;;;;;11.40;7.93;;;4.50;99.90;;;;;;4849179;29;20077;-66
2023/03/22 03:41:03;;;;;;;11.02;7.57;;;4.50;99.90;;;;;;4845060;29;20056;-64
2023/03/22 03:43:33;;;;;;;10.18;6.95;;;4.50;99.90;;;;;;4846398;29;20476;-65
2023/03/22 03:46:00;;;;;;;10.45;7.93;;;4.60;99.90;;;;;;4849523;29;20537;-68
2023/03/22 03:48:30;;;;;;;12.00;8.68;;;4.60;99.90;;;;;;4844406;29;20434;-65
2023/03/22 03:50:58;;;;;;;10.07;7.03;;;4.60;99.90;;;;;;4845497;29;20046;-65
2023/03/22 03:53:25;;;;;;;10.13;7.53;;;4.60;99.90;;;;;;4861138;29;20441;-64
2023/03/22 03:55:52;;;;;;;9.85;7.68;;;4.70;99.90;;;;;;4849174;29;20075;-65
2023/03/22 03:58:19;;;;;;;10.55;7.30;;;4.70;99.90;;;;;;4848643;29;20152;-64
2023/03/22 04:00:47;;;;;;;14.32;9.38;;;4.70;99.90;;;;;;4848364;29;20041;-67
2023/03/22 04:03:30;;;;;;;13.77;10.15;;;4.80;99.90;;;;;;4862725;29;20106;-65
2023/03/22 04:06:23;;;;;;;14.07;9.40;;;4.90;99.90;;;;;;4841645;29;20054;-65
2023/03/22 04:08:55;;;;;;;14.43;10.77;;;4.90;99.90;;;;;;4847725;29;20134;-68
2023/03/22 04:11:26;;;;;;;12.85;10.73;;;5.00;99.90;;;;;;4855581;29;20076;-64
2023/03/22 04:13:57;;;;;;;11.25;8.98;;;5.10;99.90;;;;;;4841538;29;20789;-65
2023/03/22 04:16:24;;;;;;;12.40;9.02;;;5.10;99.90;;;;;;4839573;29;20051;-64
2023/03/22 04:18:52;;;;;;;12.77;8.88;;;5.10;99.90;;;;;;4840862;29;20140;-64
2023/03/22 04:21:20;;;;;;;14.80;9.63;;;5.10;99.90;;;;;;4857786;29;20053;-63
2023/03/22 04:23:56;;;;;;;14.55;10.05;;;5.10;99.90;;;;;;4843957;29;20052;-69
2023/03/22 04:26:25;;;;;;;12.73;8.52;;;5.10;99.90;;;;;;4843682;29;20626;-66
2023/03/22 04:29:10;;;;;;;15.38;9.80;;;5.10;99.90;;;;;;4844061;29;20053;-65
2023/03/22 04:31:42;;;;;;;14.35;11.10;;;5.10;99.90;;;;;;4846575;29;20437;-66
2023/03/22 04:34:21;;;;;;;15.70;10.10;;;5.10;99.90;;;;;;4857551;29;20056;-65
2023/03/22 04:37:15;;;;;;;16.85;9.55;;;5.10;99.90;;;;;;4840165;29;20057;-65
2023/03/22 04:40:05;;;;;;;14.48;10.07;;;5.10;99.90;;;;;;4836961;29;20060;-64
2023/03/22 04:42:46;;;;;;;12.35;8.68;;;5.10;99.90;;;;;;4856959;29;20082;-65
2023/03/22 04:45:20;;;;;;;9.98;8.35;;;5.10;99.90;;;;;;4848089;29;20058;-64
2023/03/22 04:47:54;;;;;;;9.40;7.38;;;5.00;99.90;;;;;;4847258;29;20152;-66
2023/03/22 04:50:21;;;;;;;10.98;8.18;;;5.00;99.90;;;;;;4841738;29;20042;-65
2023/03/22 04:52:52;;;;;;;12.20;8.93;;;5.00;99.90;;;;;;4844065;29;20392;-64
2023/03/22 04:55:19;;;;;;;9.57;7.55;;;5.00;99.90;;;;;;4850962;29;21966;-65
2023/03/22 04:57:47;;;;;;;11.10;7.47;;;5.00;99.90;;;;;;4849351;29;20064;-66
2023/03/22 05:00:16;;;;;;;9.32;7.10;;;5.00;99.90;;;;;;4846186;29;20069;-65
2023/03/22 05:02:42;;;;;;;9.80;7.32;;;5.00;99.90;;;;;;4845462;29;20441;-64
2023/03/22 05:05:17;;;;;;;9.38;6.15;;;5.00;99.90;;;;;;4849289;29;20057;-65
2023/03/22 05:07:46;;;;;;;7.95;6.18;;;5.00;99.90;;;;;;4856924;29;20049;-66
2023/03/22 05:10:13;;;;;;;9.48;7.22;;;5.00;99.90;;;;;;4843337;29;20050;-65
2023/03/22 05:12:41;;;;;;;9.32;6.63;;;5.00;99.90;;;;;;4845586;29;20045;-64
2023/03/22 05:15:21;;;;;;;;;;;5.00;99.90;;;;;;4842056;29;20053;-66
2023/03/22 05:17:50;;;;;;;7.20;5.10;;;5.00;99.90;;;;;;4860784;29;20012;-68
2023/03/22 05:20:17;;;;;;;9.05;6.47;;;5.00;99.90;;;;;;4861399;29;20045;-66
2023/03/22 05:22:49;;;;;;;10.70;7.82;;;5.00;99.90;;;;;;4859602;29;20049;-68
2023/03/22 05:25:18;;;;;;;10.02;6.88;;;5.00;99.90;;;;;;4850439;29;20065;-67
2023/03/22 05:27:45;;;;;;;12.10;8.70;;;5.00;99.90;;;;;;4863488;29;20460;-64
2023/03/22 05:30:42;;;;;;;9.38;6.68;;;5.00;99.90;;;;;;4839218;29;20083;-65
2023/03/22 05:33:22;;;;;;;14.95;8.20;;;5.00;99.90;;;;;;4850388;29;20049;-65
2023/03/22 05:35:53;;;;;;;12.70;8.63;;;5.00;99.90;;;;;;4859768;29;20056;-69
2023/03/22 05:38:24;;;;;;;12.00;8.55;;;5.00;99.90;;;;;;4813324;29;20042;-65
2023/03/22 05:40:53;;;;;;;13.38;9.07;;;5.00;99.90;;;;;;4832171;29;20083;-68
2023/03/22 05:43:20;;;;;;;12.88;7.75;;;5.00;99.90;;;;;;4837502;29;20130;-66
2023/03/22 05:45:49;;;;;;;13.73;9.65;;;5.10;99.90;;;;;;4830825;29;20484;-68
2023/03/22 05:48:32;;;;;;;16.35;9.40;;;5.10;99.90;;;;;;4826640;29;20050;-66
2023/03/22 05:50:59;;;;;;;13.35;8.43;;;5.10;99.90;;;;;;4817074;29;20142;-65
2023/03/22 05:53:30;;;;;;;14.77;9.25;;;5.20;99.90;;;;;;4813671;29;20070;-65
2023/03/22 05:56:08;;;;;;;15.05;7.85;;;5.20;99.90;;;;;;4814307;29;20133;-65
2023/03/22 05:58:36;;;;;;;13.75;7.80;;;5.30;99.90;;;;;;4809814;29;20058;-72
2023/03/22 06:01:10;;;;;;;16.58;9.32;;;5.30;99.90;;;;;;4817392;29;20869;-65
2023/03/22 06:03:47;;;;;;;14.90;8.65;;;5.30;99.90;;;;;;4826515;29;20077;-65
2023/03/22 06:06:28;;;;;;;12.98;8.45;;;5.30;99.90;;;;;;4826642;29;20057;-65
2023/03/22 06:09:05;;;;;;;12.70;8.93;;;5.40;99.90;;;;;;4828428;29;20112;-65
2023/03/22 06:11:45;;;;;;;16.00;9.27;;;5.40;99.90;;;;;;4830071;29;20532;-67
2023/03/22 06:14:14;;;;;;;13.20;8.10;;;5.40;99.90;;;;;;4811272;29;20054;-66
2023/03/22 06:17:20;;;;;;;14.68;8.55;;;5.50;99.90;;;;;;4808153;29;20059;-69
2023/03/22 06:19:48;;;;;;;15.45;8.35;;;5.50;99.90;;;;;;4829394;29;20057;-65
2023/03/22 06:22:17;;;;;;;13.70;7.68;;;5.50;99.90;;;;;;4827108;29;20050;-64
2023/03/22 06:24:45;;;;;;;12.13;7.05;;;5.50;99.90;;;;;;4811030;29;20064;-67
2023/03/22 06:27:17;;;;;;;10.88;8.60;;;5.50;99.90;;;;;;4811535;29;20054;-69
2023/03/22 06:29:49;;;;;;;12.10;7.70;;;5.60;99.90;;;;;;4824634;29;20783;-69
2023/03/22 06:32:25;;;;;;;13.60;8.10;;;5.60;99.90;;;;;;4829985;29;20053;-68
2023/03/22 06:34:53;;;;;;;13.30;8.23;;;5.70;99.90;;;;;;4806172;29;20145;-71
2023/03/22 06:37:21;;;;;;;12.23;8.00;;;5.70;99.90;;;;;;4847087;29;20756;-69
2023/03/22 06:39:50;;;;;;;11.80;8.13;;;5.70;99.90;;;;;;4846122;29;20069;-66
2023/03/22 06:42:19;;;;;;;12.55;8.05;;;5.70;99.90;;;;;;4847359;29;20144;-66
2023/03/22 06:44:52;;;;;;;13.82;8.13;;;5.70;99.90;;;;;;4845697;29;20491;-66
2023/03/22 06:47:29;;;;;;;12.68;8.40;;;5.70;99.90;;;;;;4847006;29;20053;-67
2023/03/22 06:50:09;;;;;;;15.65;9.57;;;5.70;99.90;;;;;;4842478;29;20086;-65
2023/03/22 06:53:02;;;;;;;13.07;8.85;;;5.70;99.90;;;;;;4857888;29;20046;-66
2023/03/22 06:55:33;;;;;;;15.93;8.75;;;5.70;99.90;;;;;;4844631;29;20080;-70
2023/03/22 06:58:09;;;;;;;14.73;8.88;;;5.80;99.90;;;;;;4844914;29;20412;-68
2023/03/22 07:00:37;;;;;;;13.50;9.20;;;5.80;99.90;;;;;;4843462;29;20133;-67
2023/03/22 07:03:06;;;;;;;11.55;7.60;;;5.90;99.90;;;;;;4841910;29;20046;-67
2023/03/22 07:05:39;;;;;;;12.52;7.38;;;5.90;99.90;;;;;;4846326;29;20148;-69
2023/03/22 07:08:06;;;;;;;11.77;7.45;;;5.90;99.90;;;;;;4846030;29;20081;-65
2023/03/22 07:10:37;;;;;;;11.23;8.50;;;5.90;99.90;;;;;;4844136;29;20046;-65
2023/03/22 07:13:05;;;;;;;10.75;7.85;;;5.90;99.90;;;;;;4845174;29;20057;-68
2023/03/22 07:15:33;;;;;;;10.32;5.75;;;5.90;99.90;;;;;;4862281;29;20046;-64
2023/03/22 07:18:06;;;;;;;10.38;6.45;;;5.90;99.90;;;;;;4860316;29;20488;-64
2023/03/22 07:20:37;;;;;;;12.07;7.80;;;6.00;99.90;;;;;;4845909;29;20057;-67
2023/03/22 07:23:04;;;;;;;10.13;7.18;;;6.00;99.90;;;;;;4846641;29;20092;-67
2023/03/22 07:25:37;;;;;;;10.18;7.05;;;6.00;99.90;;;;;;4842444;29;20057;-65
2023/03/22 07:28:16;;;;;;;9.77;6.90;;;6.00;99.90;;;;;;4859719;29;20437;-64
2023/03/22 07:30:43;;;;;;;9.90;6.97;;;6.10;99.90;;;;;;4843890;29;20149;-65
2023/03/22 07:33:11;;;;;;;10.30;7.07;;;6.20;99.90;;;;;;4844556;29;20085;-67
2023/03/22 07:35:39;;;;;;;8.68;6.35;;;6.30;99.90;;;;;;4859586;29;20109;-67
2023/03/22 07:38:06;;;;;;;8.77;5.85;;;6.50;99.90;;;;;;4861475;29;20672;-65
2023/03/22 07:40:33;;;;;;;8.45;6.45;;;6.50;99.90;;;;;;4841903;29;20049;-65
2023/03/22 07:43:01;;;;;;;10.32;7.22;;;6.50;99.90;;;;;;4842194;29;20057;-65
2023/03/22 07:45:54;;;;;;;8.35;6.28;;;6.50;99.90;;;;;;4842106;29;20069;-66
2023/03/22 07:48:40;;;;;;;7.72;5.97;;;6.40;99.90;;;;;;4844460;29;20061;-65
2023/03/22 07:51:30;;;;;;;7.70;5.13;;;6.50;99.90;;;;;;4843459;29;20455;-66
2023/03/22 07:53:57;;;;;;;7.65;5.00;;;6.50;99.90;;;;;;4856909;29;20106;-67
2023/03/22 07:56:24;;;;;;;7.63;5.88;;;6.50;99.90;;;;;;4841843;29;20053;-63
2023/03/22 07:58:52;;;;;;;9.75;7.07;;;6.50;99.90;;;;;;4837203;29;20057;-68
2023/03/22 08:01:20;;;;;;;11.88;7.65;;;6.50;99.90;;;;;;4862424;29;20057;-65
2023/03/22 08:04:04;;;;;;;11.23;7.30;;;6.50;99.90;;;;;;4855077;29;20142;-67
2023/03/22 08:06:41;;;;;;;10.00;7.43;;;6.50;99.90;;;;;;4845402;29;20065;-71
2023/03/22 08:09:09;;;;;;;8.65;6.70;;;6.50;99.90;;;;;;4845764;29;20056;-65
2023/03/22 08:11:36;;;;;;;12.05;8.00;;;6.50;99.90;;;;;;4846896;29;20064;-67
2023/03/22 08:14:03;;;;;;;11.70;7.32;;;6.50;99.90;;;;;;4843484;29;20061;-65
2023/03/22 08:16:32;;;;;;;11.10;7.60;;;6.50;99.90;;;;;;4855590;29;20053;-64
2023/03/22 08:19:01;;;;;;;11.05;7.28;;;6.60;99.90;;;;;;4839871;29;20523;-66
2023/03/22 08:21:30;;;;;;;8.98;7.85;;;6.50;99.90;;;;;;4854468;29;20563;-65
2023/03/22 08:23:57;;;;;;;14.25;8.27;;;6.60;99.90;;;;;;4858557;29;20050;-67
2023/03/22 08:26:27;;;;;;;8.32;6.78;;;6.60;99.90;;;;;;4840353;29;20046;-67
2023/03/22 08:28:58;;;;;;;10.38;6.47;;;6.50;99.90;;;;;;4837698;29;20057;-69
2023/03/22 08:31:28;;;;;;;8.40;7.60;;;6.50;99.90;;;;;;4849359;29;20045;-67
2023/03/22 08:33:55;;;;;;;13.07;8.18;;;6.50;99.90;;;;;;4862432;29;20050;-67
2023/03/22 08:36:22;;;;;;;13.00;8.35;;;6.50;99.90;;;;;;4845903;29;20140;-64
2023/03/22 08:38:57;;;;;;;13.18;8.20;;;6.50;99.90;;;;;;4855785;29;20053;-68
2023/03/22 08:41:35;;;;;;;13.43;8.90;;;6.50;99.90;;;;;;4861333;29;20041;-65
2023/03/22 08:44:02;;;;;;;13.45;9.25;;;6.50;99.90;;;;;;4841336;29;20137;-65
2023/03/22 08:46:30;;;;;;;10.65;8.00;;;6.50;99.90;;;;;;4863783;29;20083;-67
2023/03/22 08:48:59;;;;;;;15.90;10.57;;;6.50;99.90;;;;;;4842742;29;20500;-68
2023/03/22 08:51:32;;;;;;;13.23;8.90;;;6.50;99.90;;;;;;4861491;29;20148;-64
2023/03/22 08:54:09;;;;;;;16.08;9.90;;;6.50;99.90;;;;;;4861889;29;20060;-65
2023/03/22 08:56:51;;;;;;;15.25;10.18;;;6.50;99.90;;;;;;4844739;29;20801;-66
2023/03/22 08:59:32;;;;;;;15.10;10.05;;;6.50;99.90;;;;;;4858688;29;20045;-65
2023/03/22 09:02:26;;;;;;;18.83;11.57;;;6.50;99.90;;;;;;4842639;29;20487;-68
2023/03/22 09:04:54;;;;;;;15.77;9.60;;;6.40;99.90;;;;;;4843352;29;20463;-65
2023/03/22 09:07:23;;;;;;;15.65;11.05;;;6.40;99.90;;;;;;4863070;29;20827;-65
2023/03/22 09:10:02;;;;;;;18.48;11.32;;;6.40;99.90;;;;;;4862089;29;20062;-68
2023/03/22 09:12:30;;;;;;;16.02;10.88;;;6.40;99.90;;;;;;4845166;29;20758;-64
2023/03/22 09:14:57;;;;;;;19.40;11.52;;;6.50;99.90;;;;;;4844918;29;20153;-66
2023/03/22 09:17:26;;;;;;;24.20;13.20;;;6.40;99.90;;;;;;4847629;29;20050;-68
2023/03/22 09:19:53;;;;;;;24.40;11.85;;;6.50;99.90;;;;;;4863461;29;20572;-65
2023/03/22 09:22:39;;;;;;;23.00;12.40;;;6.50;99.90;;;;;;4845276;29;20057;-68
2023/03/22 09:25:08;;;;;;;21.50;11.13;;;6.60;99.90;;;;;;4848252;29;20089;-66
2023/03/22 09:27:40;;;;;;;21.08;13.23;;;6.80;99.90;;;;;;4860028;29;20081;-65
2023/03/22 09:30:07;;;;;;;24.73;16.23;;;7.00;99.90;;;;;;4844624;29;20081;-66
2023/03/22 09:32:34;;;;;;;26.85;15.55;;;7.20;99.90;;;;;;4857602;29;20737;-66
2023/03/22 09:35:03;;;;;;;25.50;13.98;;;7.30;99.90;;;;;;4838625;29;20050;-67
2023/03/22 09:37:38;;;;;;;22.80;14.65;;;7.40;99.90;;;;;;4848946;29;20061;-67
2023/03/22 09:40:06;;;;;;;23.10;15.23;;;7.50;99.90;;;;;;4845916;29;20057;-64
2023/03/22 09:43:01;;;;;;;24.38;14.20;;;7.60;99.90;;;;;;4858778;29;20540;-65
2023/03/22 09:45:43;;;;;;;24.55;17.10;;;7.50;99.90;;;;;;4842904;29;20481;-64
2023/03/22 09:48:33;;;;;;;26.00;17.70;;;7.50;99.90;;;;;;4842293;29;20051;-67
2023/03/22 09:51:03;;;;;;;23.85;15.20;;;7.60;99.90;;;;;;4846622;29;20049;-65
2023/03/22 09:53:31;;;;;;;23.77;14.50;;;7.70;99.90;;;;;;4847508;29;20199;-66
2023/03/22 09:56:24;;;;;;;23.02;14.20;;;7.70;99.90;;;;;;4847996;29;20041;-68
2023/03/22 09:58:53;;;;;;;24.63;15.85;;;7.80;99.90;;;;;;4843026;29;20053;-68
2023/03/22 10:01:40;;;;;;;23.27;15.63;;;8.00;99.90;;;;;;4845651;29;20066;-66
2023/03/22 10:04:25;;;;;;;25.55;15.68;;;8.00;99.90;;;;;;4842960;29;20041;-66
2023/03/22 10:07:32;;;;;;;25.00;17.13;;;8.10;99.90;;;;;;4846415;29;20510;-68
2023/03/22 10:10:16;;;;;;;27.13;18.52;;;8.20;99.90;;;;;;4836244;29;20046;-67
2023/03/22 10:13:18;;;;;;;23.75;13.88;;;8.40;99.90;;;;;;4844061;29;20136;-65
2023/03/22 10:15:51;;;;;;;22.58;15.18;;;8.50;99.90;;;;;;4836181;29;20156;-64
2023/03/22 10:18:29;;;;;;;18.38;14.15;;;8.60;99.90;;;;;;4847230;29;20141;-64
2023/03/22 10:21:06;;;;;;;22.85;15.65;;;8.70;99.90;;;;;;4840709;29;20624;-66
2023/03/22 10:23:39;;;;;;;20.10;16.05;;;8.80;99.90;;;;;;4845730;29;20053;-64
2023/03/22 10:26:18;;;;;;;22.17;15.18;;;8.80;99.90;;;;;;4844226;29;20113;-65
2023/03/22 10:28:53;;;;;;;23.98;16.35;;;8.80;99.90;;;;;;4845276;29;20144;-65
2023/03/22 10:31:20;;;;;;;19.40;16.33;;;8.90;99.90;;;;;;4846592;29;20593;-65
2023/03/22 10:34:15;;;;;;;24.88;17.33;;;9.00;99.90;;;;;;4845671;29;20240;-65
2023/03/22 10:36:43;;;;;;;26.60;18.50;;;8.90;99.90;;;;;;4844427;29;20072;-67
2023/03/22 10:39:35;;;;;;;26.17;18.42;;;8.80;99.90;;;;;;4843937;29;20050;-66
2023/03/22 10:42:10;;;;;;;25.20;18.38;;;8.70;99.90;;;;;;4833259;29;20054;-64
2023/03/22 10:45:01;;;;;;;26.17;15.65;;;8.60;99.90;;;;;;4844710;29;20049;-66
2023/03/22 10:47:36;;;;;;;25.45;17.30;;;8.40;99.90;;;;;;4843969;29;20045;-65
2023/03/22 10:50:08;;;;;;;23.50;16.58;;;8.20;99.90;;;;;;4841071;29;20050;-65
2023/03/22 10:52:53;;;;;;;30.67;18.05;;;8.20;99.90;;;;;;4846434;29;20057;-65
2023/03/22 10:55:20;;;;;;;27.88;18.30;;;8.10;99.90;;;;;;4841376;29;20065;-67
2023/03/22 10:58:14;;;;;;;26.10;17.00;;;8.00;99.90;;;;;;4849313;29;20136;-64
2023/03/22 11:00:45;;;;;;;25.95;17.35;;;7.90;99.90;;;;;;4845266;29;20064;-67
2023/03/22 11:03:27;;;;;;;29.38;18.48;;;7.90;99.90;;;;;;4845351;29;20061;-67
2023/03/22 11:06:05;;;;;;;26.33;17.30;;;7.80;99.90;;;;;;4844071;29;20069;-65
2023/03/22 11:08:42;;;;;;;27.50;18.80;;;7.70;99.90;;;;;;4843040;29;20659;-63
2023/03/22 11:11:29;;;;;;;28.58;19.83;;;7.70;99.90;;;;;;4838099;29;20084;-63
2023/03/22 11:14:11;;;;;;;26.33;18.13;;;7.70;99.90;;;;;;4842009;29;20510;-67
2023/03/22 11:16:59;;;;;;;29.58;18.83;;;7.80;99.90;;;;;;4841723;29;20049;-65
2023/03/22 11:19:34;;;;;;;32.85;19.35;;;7.80;99.90;;;;;;4844731;29;20069;-66
2023/03/22 11:22:04;;;;;;;30.10;19.10;;;7.90;99.90;;;;;;4845557;29;20058;-68
2023/03/22 11:24:32;;;;;;;32.75;21.35;;;8.10;99.90;;;;;;4842423;29;20073;-64
2023/03/22 11:27:04;;;;;;;29.35;18.65;;;8.20;99.90;;;;;;4845777;29;20053;-67
2023/03/22 11:29:45;;;;;;;27.85;19.95;;;8.30;99.90;;;;;;4843767;29;20396;-64
2023/03/22 11:32:27;;;;;;;27.95;16.80;;;8.60;99.90;;;;;;4843203;29;20140;-68
2023/03/22 11:35:10;;;;;;;29.20;17.08;;;8.60;99.90;;;;;;4838780;29;20054;-65
2023/03/22 11:37:45;;;;;;;26.85;17.67;;;8.80;99.90;;;;;;4840484;29;20322;-67
2023/03/22 11:40:27;;;;;;;24.52;15.90;;;8.90;99.90;;;;;;4844163;29;20053;-65
2023/03/22 11:43:05;;;;;;;24.23;16.50;;;9.00;99.90;;;;;;4845022;29;20455;-64
2023/03/22 11:45:36;;;;;;;20.08;13.88;;;9.00;99.90;;;;;;4844514;29;20056;-65
2023/03/22 11:48:13;;;;;;;18.58;14.18;;;9.00;99.90;;;;;;4840801;29;20133;-69
2023/03/22 11:50:43;;;;;;;21.15;14.73;;;9.20;99.90;;;;;;4842191;29;20057;-66
2023/03/22 11:53:17;;;;;;;18.08;14.25;;;9.30;99.90;;;;;;4842716;29;20045;-65
2023/03/22 11:55:47;;;;;;;16.63;12.30;;;9.50;99.90;;;;;;4843264;29;20397;-64
2023/03/22 11:58:54;;;;;;;21.25;12.98;;;9.70;99.90;;;;;;4847884;29;20046;-67
2023/03/22 12:01:45;;;;;;;16.92;12.18;;;9.80;99.90;;;;;;4807180;29;20064;-65
2023/03/22 12:04:19;;;;;;;18.50;13.40;;;9.90;99.90;;;;;;4846953;29;20080;-64
2023/03/22 12:06:47;;;;;;;21.80;13.25;;;10.10;99.90;;;;;;4837518;29;20053;-66
2023/03/22 12:09:37;;;;;;;19.58;13.75;;;10.10;99.90;;;;;;4842238;29;20060;-67
2023/03/22 12:12:11;;;;;;;16.15;12.60;;;10.10;99.90;;;;;;4842158;29;20127;-66
2023/03/22 12:14:50;;;;;;;17.35;12.65;;;10.20;99.90;;;;;;4838149;29;20052;-66
2023/03/22 12:17:28;;;;;;;19.13;13.80;;;10.30;99.90;;;;;;4841411;29;20053;-65
2023/03/22 12:20:26;;;;;;;20.52;14.60;;;10.50;99.90;;;;;;4844312;29;20056;-66
2023/03/22 12:22:54;;;;;;;25.40;14.63;;;10.50;99.90;;;;;;4829726;29;20053;-65
2023/03/22 12:25:26;;;;;;;18.92;14.50;;;10.30;99.90;;;;;;4845948;29;20041;-65
2023/03/22 12:27:57;;;;;;;22.92;15.52;;;10.00;99.90;;;;;;4845491;29;20045;-65
2023/03/22 12:30:37;;;;;;;20.00;15.45;;;9.80;99.90;;;;;;4845498;29;20090;-64
2023/03/22 12:33:28;;;;;;;20.75;15.35;;;9.60;99.90;;;;;;4845260;29;20136;-68
2023/03/22 12:35:59;;;;;;;20.90;14.70;;;9.50;99.90;;;;;;4845057;29;20053;-69
2023/03/22 12:38:32;;;;;;;19.38;15.20;;;9.40;99.90;;;;;;4847368;29;20115;-65
2023/03/22 12:41:05;;;;;;;22.45;15.18;;;9.40;99.90;;;;;;4846889;29;20060;-65
2023/03/22 12:43:43;;;;;;;20.95;15.00;;;9.30;99.90;;;;;;4843725;29;20052;-65
2023/03/22 12:46:21;;;;;;;26.60;19.55;;;9.10;99.90;;;;;;4845506;29;20049;-65
2023/03/22 12:48:53;;;;;;;28.42;19.55;;;9.00;99.90;;;;;;4839070;29;20388;-65
2023/03/22 12:51:20;;;;;;;28.52;18.58;;;8.80;99.90;;;;;;4843139;29;20049;-68
2023/03/22 12:53:52;;;;;;;28.55;20.85;;;8.60;99.90;;;;;;4846621;29;20124;-66
2023/03/22 12:56:35;;;;;;;25.73;18.25;;;8.50;99.90;;;;;;4842183;29;20058;-66
2023/03/22 12:59:07;;;;;;;28.20;20.40;;;8.40;99.90;;;;;;4844453;29;20408;-64
2023/03/22 13:02:00;;;;;;;30.77;21.42;;;8.40;99.90;;;;;;4844995;29;20093;-64
2023/03/22 13:04:36;;;;;;;30.15;21.58;;;8.30;99.90;;;;;;4846090;29;20056;-64
2023/03/22 13:07:18;;;;;;;32.60;20.52;;;8.30;99.90;;;;;;4837789;29;20126;-67
2023/03/22 13:09:49;;;;;;;32.50;23.13;;;8.20;99.90;;;;;;4854438;29;20053;-67
2023/03/22 13:12:16;;;;;;;32.92;23.23;;;8.20;99.90;;;;;;4844495;29;20372;-67
2023/03/22 13:14:51;;;;;;;31.58;22.77;;;8.30;99.90;;;;;;4840109;29;20153;-65
2023/03/22 13:17:21;;;;;;;31.48;21.83;;;8.20;99.90;;;;;;4843675;29;20136;-66
2023/03/22 13:20:05;;;;;;;34.20;22.73;;;8.20;99.90;;;;;;4846485;29;20042;-64
2023/03/22 13:22:35;;;;;;;31.23;23.42;;;8.20;99.90;;;;;;4846545;29;20058;-66
2023/03/22 13:25:26;;;;;;;31.10;23.30;;;8.20;99.90;;;;;;4847025;29;20056;-66